Time;durP1;ratioP1;P1;durP2;ratioP2;P2;SDS_P1;SDS_P2;PMS_P1;PMS_P2;Temp;Humidity;BMP_temperature;BMP_pressure;BME280_temperature;BME280_humidity;BME280_pressure;Samples;Min_cycle;Max_cycle;Signal;HPM_P1;HPM_P2
2022/10/20 00:00:10;;;;;;;2.83;2.60;;;;;;;3.73;100.00;100964.72;10633791;27;20078;-72
2022/10/20 00:05:12;;;;;;;3.58;2.97;;;;;;;3.72;100.00;100947.38;10634456;27;20399;-72
2022/10/20 00:10:13;;;;;;;3.78;2.75;;;;;;;4.21;100.00;100957.38;10633016;27;20117;-72
2022/10/20 00:15:15;;;;;;;3.22;2.92;;;;;;;3.79;100.00;100949.16;10632497;27;20039;-72
2022/10/20 00:20:17;;;;;;;2.78;2.45;;;;;;;3.82;100.00;100945.75;10632383;27;20441;-72
2022/10/20 00:25:19;;;;;;;2.42;2.20;;;;;;;3.82;100.00;100935.34;10632443;27;20043;-72
2022/10/20 00:30:20;;;;;;;3.63;2.58;;;;;;;4.09;100.00;100942.53;10631743;27;20127;-73
2022/10/20 00:35:26;;;;;;;4.25;2.70;;;;;;;3.73;100.00;100938.72;10631795;27;20039;-72
2022/10/20 00:40:27;;;;;;;4.53;2.80;;;;;;;3.67;100.00;100933.44;10631677;27;20128;-72
2022/10/20 00:45:29;;;;;;;5.70;3.58;;;;;;;3.57;100.00;100925.53;10631290;27;20047;-72
2022/10/20 00:50:37;;;;;;;5.05;4.55;;;;;;;3.66;100.00;100923.03;10631236;27;20063;-72
2022/10/20 00:55:41;;;;;;;5.18;3.97;;;;;;;3.61;100.00;100922.09;10630531;27;20088;-72
2022/10/20 01:00:45;;;;;;;4.90;3.78;;;;;;;3.51;100.00;100914.22;10629134;27;20044;-72
2022/10/20 01:05:46;;;;;;;4.28;3.55;;;;;;;3.51;100.00;100913.34;10629418;27;20078;-72
2022/10/20 01:11:08;;;;;;;5.22;4.53;;;;;;;3.47;100.00;100904.63;10630911;27;20043;-72
2022/10/20 01:16:15;;;;;;;4.25;3.85;;;;;;;3.44;100.00;100895.91;10630942;27;20042;-73
2022/10/20 01:22:01;;;;;;;4.28;3.60;;;;;;;3.42;100.00;100884.66;10630545;27;20400;-72
2022/10/20 01:27:24;;;;;;;4.00;3.60;;;;;;;3.32;100.00;100878.47;10557284;27;20062;-73
2022/10/20 01:32:47;;;;;;;4.43;3.30;;;;;;;3.29;100.00;100862.84;10629846;27;20047;-72
2022/10/20 01:38:02;;;;;;;3.97;3.58;;;;;;;3.48;100.00;100874.31;10630881;27;20035;-72
2022/10/20 01:43:09;;;;;;;4.78;3.10;;;;;;;3.40;100.00;100860.34;10611084;27;20065;-72
2022/10/20 01:48:12;;;;;;;3.67;2.60;;;;;;;3.89;100.00;100856.50;10629347;27;20070;-72
2022/10/20 01:53:14;;;;;;;3.20;2.90;;;;;;;3.73;100.00;100852.91;10629130;27;20564;-72
2022/10/20 01:58:27;;;;;;;4.75;3.17;;;;;;;3.54;100.00;100835.38;10629300;27;20091;-72
2022/10/20 02:03:51;;;;;;;3.83;2.72;;;;;;;3.60;100.00;100832.84;10628162;27;20087;-73
2022/10/20 02:09:02;;;;;;;2.95;2.70;;;;;;;3.60;100.00;100809.44;10627585;27;20488;-72
2022/10/20 02:14:06;;;;;;;4.10;3.47;;;;;;;3.89;100.00;100795.78;10628099;27;20039;-72
2022/10/20 02:19:11;;;;;;;8.05;4.70;;;;;;;4.38;100.00;100781.38;10627678;27;20047;-72
2022/10/20 02:24:14;;;;;;;41.72;6.47;;;;;;;4.31;100.00;100777.00;10627063;27;20078;-73
2022/10/20 02:29:23;;;;;;;24.67;5.63;;;;;;;4.34;100.00;100763.13;10611308;27;20051;-73
2022/10/20 02:34:25;;;;;;;8.68;5.07;;;;;;;4.40;100.00;100755.38;10626664;27;20055;-73
2022/10/20 02:39:27;;;;;;;22.98;5.53;;;;;;;4.27;100.00;100746.63;10626322;27;20447;-73
2022/10/20 02:44:29;;;;;;;11.68;5.57;;;;;;;4.32;100.00;100738.84;10626354;27;20035;-72
2022/10/20 02:49:30;;;;;;;6.18;5.50;;;;;;;4.40;100.00;100744.97;10625912;27;20068;-72
2022/10/20 02:54:32;;;;;;;7.03;6.25;;;;;;;4.37;100.00;100748.41;10626636;27;20058;-72
2022/10/20 02:59:34;;;;;;;8.80;6.65;;;;;;;4.68;100.00;100740.72;10625723;27;20039;-72
2022/10/20 03:04:36;;;;;;;8.60;7.10;;;;;;;4.52;100.00;100734.59;10626283;27;20103;-72
2022/10/20 03:09:37;;;;;;;8.40;7.68;;;;;;;4.52;100.00;100727.66;10606960;27;20055;-72
2022/10/20 03:14:41;;;;;;;11.07;8.32;;;;;;;4.53;100.00;100713.78;10607861;27;20431;-71
2022/10/20 03:19:43;;;;;;;9.90;8.68;;;;;;;4.60;100.00;100716.38;10608184;27;20581;-73
2022/10/20 03:24:44;;;;;;;9.02;8.43;;;;;;;4.66;100.00;100717.28;10624331;27;20088;-73
2022/10/20 03:29:46;;;;;;;9.25;8.65;;;;;;;4.78;100.00;100719.03;10624685;27;20508;-73
2022/10/20 03:34:47;;;;;;;10.00;9.13;;;;;;;4.72;100.00;100713.81;10624594;27;20078;-72
2022/10/20 03:39:49;;;;;;;9.82;8.93;;;;;;;4.74;100.00;100712.97;10624194;27;20039;-72
2022/10/20 03:44:51;;;;;;;9.90;9.10;;;;;;;4.76;100.00;100708.63;10624554;28;20043;-72
2022/10/20 03:49:52;;;;;;;8.75;8.13;;;;;;;4.71;100.00;100705.16;10624455;28;20035;-72
2022/10/20 03:54:54;;;;;;;8.68;7.95;;;;;;;4.74;100.00;100710.38;10607504;28;20122;-72
2022/10/20 03:59:55;;;;;;;8.23;7.55;;;;;;;4.64;100.00;100705.13;10623975;28;20488;-71
2022/10/20 04:04:57;;;;;;;8.07;7.38;;;;;;;4.66;100.00;100711.22;10624143;28;20513;-71
2022/10/20 04:10:01;;;;;;;8.13;7.28;;;;;;;4.69;100.00;100692.97;10624341;28;20166;-73
2022/10/20 04:15:04;;;;;;;8.00;7.50;;;;;;;4.56;100.00;100694.69;10624973;28;20051;-72
2022/10/20 04:20:06;;;;;;;8.32;7.65;;;;;;;4.59;100.00;100691.22;10605922;28;20043;-72
2022/10/20 04:25:08;;;;;;;7.75;7.15;;;;;;;4.49;100.00;100685.13;10624610;28;20129;-72
2022/10/20 04:30:10;;;;;;;8.57;7.85;;;;;;;4.45;100.00;100686.84;10606168;28;20416;-72
2022/10/20 04:35:11;;;;;;;7.35;6.75;;;;;;;4.46;100.00;100670.34;10624866;22;20051;-68
2022/10/20 04:40:13;;;;;;;7.47;6.75;;;;;;;4.43;100.00;100666.88;10572333;28;20044;-69
2022/10/20 04:45:15;;;;;;;7.07;6.57;;;;;;;4.42;100.00;100665.13;10589926;28;20035;-69
2022/10/20 04:50:17;;;;;;;8.05;7.22;;;;;;;4.53;100.00;100650.41;10589764;28;20088;-69
2022/10/20 04:55:31;;;;;;;8.15;7.55;;;;;;;4.44;100.00;100638.25;10570775;28;20164;-69
2022/10/20 05:00:32;;;;;;;8.48;7.68;;;;;;;4.53;100.00;100635.66;10588586;28;20085;-69
2022/10/20 05:05:34;;;;;;;7.65;6.93;;;;;;;4.44;100.00;100633.03;10589189;28;20088;-69
2022/10/20 05:10:35;;;;;;;7.90;7.20;;;;;;;4.40;100.00;100626.09;10571402;28;20516;-69
2022/10/20 05:15:37;;;;;;;8.35;7.75;;;;;;;4.47;100.00;100621.75;10588798;28;20043;-69
2022/10/20 05:20:39;;;;;;;10.32;7.60;;;;;;;4.37;100.00;100617.38;10587886;28;20059;-69
2022/10/20 05:25:51;;;;;;;11.27;7.78;;;;;;;4.50;100.00;100613.97;10588578;28;20534;-69
2022/10/20 05:30:53;;;;;;;10.15;7.97;;;;;;;4.34;100.00;100625.19;10588388;28;20043;-69
2022/10/20 05:36:05;;;;;;;9.17;8.30;;;;;;;4.49;100.00;100618.28;10588460;28;20116;-69
2022/10/20 05:41:12;;;;;;;9.90;8.90;;;;;;;4.34;100.00;100606.97;10587510;28;20051;-69
2022/10/20 05:46:15;;;;;;;9.35;8.65;;;;;;;4.26;100.00;100606.97;10587402;28;20047;-69
2022/10/20 05:51:19;;;;;;;9.50;8.65;;;;;;;4.31;100.00;100605.25;10587601;28;20093;-69
2022/10/20 05:56:21;;;;;;;10.38;9.38;;;;;;;4.39;100.00;100608.72;10568812;28;20100;-70
2022/10/20 06:01:26;;;;;;;9.98;9.00;;;;;;;4.44;100.00;100611.34;10587597;28;20039;-70
2022/10/20 06:06:29;;;;;;;11.35;10.45;;;;;;;4.53;100.00;100616.56;10568523;28;20459;-69
2022/10/20 06:11:31;;;;;;;10.40;9.55;;;;;;;4.51;100.00;100624.34;10568906;28;20093;-70
2022/10/20 06:16:39;;;;;;;11.18;10.20;;;;;;;4.62;100.00;100621.78;10588507;28;20416;-69
2022/10/20 06:21:41;;;;;;;10.90;9.65;;;;;;;4.92;100.00;100618.38;10586572;28;20480;-69
2022/10/20 06:26:48;;;;;;;11.23;10.07;;;;;;;4.97;100.00;100621.84;10586784;28;20047;-69
2022/10/20 06:31:50;;;;;;;11.75;10.68;;;;;;;5.05;100.00;100622.72;10587000;28;20036;-69
2022/10/20 06:36:52;;;;;;;13.77;11.50;;;;;;;5.04;100.00;100623.56;10585761;28;20043;-69
2022/10/20 06:41:54;;;;;;;11.88;10.77;;;;;;;5.12;100.00;100620.97;10585080;28;20040;-70
2022/10/20 06:47:08;;;;;;;17.02;11.77;;;;;;;5.16;100.00;100629.66;10569551;28;20105;-70
2022/10/20 06:52:10;;;;;;;12.90;11.63;;;;;;;5.18;100.00;100633.13;10586509;28;20035;-70
2022/10/20 06:57:12;;;;;;;12.55;11.27;;;;;;;5.35;100.00;100636.59;10585404;28;20035;-69
2022/10/20 07:02:14;;;;;;;13.45;12.13;;;;;;;5.67;100.00;100643.53;10584851;28;20036;-69
2022/10/20 07:07:16;;;;;;;12.98;11.95;;;;;;;5.72;100.00;100645.22;10566227;28;20075;-70
2022/10/20 07:12:17;;;;;;;12.73;11.40;;;;;;;5.77;100.00;100640.00;10584421;28;20450;-69
2022/10/20 07:17:19;;;;;;;12.75;11.60;;;;;;;5.85;100.00;100638.25;10566305;28;20491;-70
2022/10/20 07:22:20;;;;;;;12.98;12.07;;;;;;;6.11;100.00;100632.97;10584047;28;20040;-69
2022/10/20 07:27:22;;;;;;;12.70;11.70;;;;;;;6.20;100.00;100626.84;10583919;28;20043;-69
2022/10/20 07:32:24;;;;;;;11.82;10.73;;;;;;;6.50;100.00;100624.06;10583453;28;20106;-69
2022/10/20 07:37:26;;;;;;;11.75;10.75;;;;;;;6.66;100.00;100606.56;10565980;28;20043;-69
2022/10/20 07:42:28;;;;;;;11.93;10.75;;;;;;;6.71;100.00;100607.38;10583366;28;20044;-69
2022/10/20 07:47:29;;;;;;;10.90;9.80;;;;;;;6.59;100.00;100612.69;10583050;28;20043;-69
2022/10/20 07:52:37;;;;;;;10.63;9.73;;;;;;;7.03;100.00;100601.91;10565008;28;20386;-69
2022/10/20 07:57:39;;;;;;;11.80;9.48;;;;;;;7.38;100.00;100598.13;10582598;28;20045;-70
2022/10/20 08:02:41;;;;;;;11.77;8.45;;;;;;;7.49;100.00;100598.91;10583114;28;20047;-70
2022/10/20 08:07:42;;;;;;;8.25;7.50;;;;;;;8.03;96.00;100582.56;10583596;28;20431;-69
2022/10/20 08:12:44;;;;;;;7.55;6.30;;;;;;;8.37;93.59;100580.41;10590503;28;20069;-69
2022/10/20 08:17:46;;;;;;;6.15;4.40;;;;;;;8.74;90.25;100572.00;10591523;28;20043;-69
2022/10/20 08:22:47;;;;;;;4.20;3.50;;;;;;;9.19;86.04;100569.50;10592355;28;20039;-69
2022/10/20 08:27:49;;;;;;;5.45;2.95;;;;;;;9.57;82.17;100564.44;10573211;28;20043;-69
2022/10/20 08:32:51;;;;;;;7.03;3.15;;;;;;;9.63;81.95;100547.69;10591039;28;20031;-69
2022/10/20 08:37:54;;;;;;;5.93;2.55;;;;;;;9.81;80.32;100543.81;10590489;28;20043;-69
2022/10/20 08:42:56;;;;;;;3.88;2.42;;;;;;;9.98;79.63;100544.34;10590620;28;20104;-70
2022/10/20 08:47:58;;;;;;;3.83;2.20;;;;;;;10.13;77.14;100543.13;10590246;28;20118;-70
2022/10/20 08:53:00;;;;;;;2.67;1.77;;;;;;;10.43;75.50;100525.84;10590132;28;20465;-70
2022/10/20 08:58:05;;;;;;;2.70;1.77;;;;;;;10.46;75.41;100519.69;10591175;28;20047;-70
2022/10/20 09:03:20;;;;;;;5.95;2.25;;;;;;;10.77;72.52;100511.91;10589769;28;20061;-70
2022/10/20 09:08:26;;;;;;;2.55;1.80;;;;;;;10.83;70.52;100512.59;10570823;28;20501;-70
2022/10/20 09:13:30;;;;;;;2.95;1.83;;;;;;;10.97;69.32;100507.00;10589030;28;20072;-70
2022/10/20 09:18:33;;;;;;;2.90;2.20;;;;;;;11.06;69.96;100504.13;10588657;28;20047;-69
2022/10/20 09:23:45;;;;;;;2.95;1.95;;;;;;;11.16;69.78;100506.53;10588505;28;20071;-70
2022/10/20 09:28:49;;;;;;;2.20;1.85;;;;;;;11.43;66.51;100494.38;10589330;28;20055;-69
2022/10/20 09:34:24;;;;;;;2.95;2.00;;;;;;;11.30;66.87;100486.81;10590284;28;20122;-69
2022/10/20 09:39:28;;;;;;;3.35;2.08;;;;;;;11.29;66.39;100487.75;10588096;28;20455;-69
2022/10/20 09:44:34;;;;;;;2.17;1.88;;;;;;;11.58;64.08;100486.03;10553073;28;20136;-69
2022/10/20 09:49:37;;;;;;;3.38;1.83;;;;;;;11.67;63.76;100477.03;10589235;28;20054;-69
2022/10/20 09:54:39;;;;;;;2.00;1.58;;;;;;;11.75;63.25;100472.41;10588304;28;20036;-68
2022/10/20 09:59:45;;;;;;;2.30;1.70;;;;;;;11.95;62.78;100477.94;10586716;28;20043;-68
2022/10/20 10:04:49;;;;;;;3.38;1.50;;;;;;;12.23;60.05;100479.75;10586858;28;20047;-69
2022/10/20 10:10:05;;;;;;;4.75;1.67;;;;;;;12.60;59.92;100472.38;10569470;28;20052;-69
2022/10/20 10:15:26;;;;;;;3.38;1.45;;;;;;;13.13;57.05;100467.03;10587434;28;20036;-70
2022/10/20 10:20:30;;;;;;;9.57;1.63;;;;;;;13.43;57.19;100455.47;10587714;28;20048;-69
2022/10/20 10:25:32;;;;;;;2.15;1.40;;;;;;;13.54;56.14;100454.13;10586806;28;20047;-68
2022/10/20 10:30:38;;;;;;;2.42;1.40;;;;;;;13.93;54.40;100448.25;10586264;28;20040;-68
2022/10/20 10:35:42;;;;;;;1.50;1.27;;;;;;;14.17;52.97;100437.66;10596727;22;20133;-73
2022/10/20 10:41:11;;;;;;;7.10;1.10;;;;;;;14.27;50.88;100426.63;10586222;28;20125;-72
2022/10/20 10:46:20;;;;;;;1.83;1.23;;;;;;;14.35;51.14;100428.97;10586365;28;20039;-73
2022/10/20 10:51:34;;;;;;;3.70;1.23;;;;;;;14.86;52.59;100430.38;10586256;28;20044;-73
2022/10/20 10:56:42;;;;;;;3.78;1.10;;;;;;;15.07;48.94;100410.03;10583377;28;20390;-73
2022/10/20 11:02:02;;;;;;;3.22;1.13;;;;;;;15.22;48.75;100411.13;10565663;28;20055;-72
2022/10/20 11:07:23;;;;;;;1.95;1.33;;;;;;;15.59;48.55;100395.28;10584457;28;20050;-73
2022/10/20 11:13:06;;;;;;;2.67;1.27;;;;;;;15.00;48.58;100400.63;10566058;28;20058;-73
2022/10/20 11:18:29;;;;;;;3.00;1.38;;;;;;;15.08;48.29;100388.78;10569898;28;20051;-73
2022/10/20 11:23:50;;;;;;;2.22;1.20;;;;;;;15.83;47.12;100389.78;10584768;28;20039;-72
2022/10/20 11:28:54;;;;;;;1.98;1.30;;;;;;;15.84;46.44;100378.25;10586251;28;20043;-74
2022/10/20 11:34:15;;;;;;;1.75;1.20;;;;;;;15.66;46.62;100368.53;10585229;28;20047;-72
2022/10/20 11:39:32;;;;;;;3.47;1.50;;;;;;;15.28;47.23;100368.50;10585090;28;20039;-73
2022/10/20 11:44:41;;;;;;;1.58;1.40;;;;;;;15.28;47.96;100365.84;10583329;28;20036;-71
2022/10/20 11:49:43;;;;;;;2.67;1.52;;;;;;;15.51;45.59;100360.34;10583344;28;20047;-72
2022/10/20 11:55:03;;;;;;;2.47;1.50;;;;;;;15.51;47.00;100343.59;10582845;28;20447;-72
2022/10/20 12:00:36;;;;;;;1.98;1.48;;;;;;;14.83;46.50;100338.75;10583078;28;20040;-72
2022/10/20 12:05:49;;;;;;;3.65;1.50;;;;;;;14.41;46.23;100338.78;10582882;28;20509;-72
2022/10/20 12:11:27;;;;;;;2.58;1.50;;;;;;;14.12;45.73;100342.63;10584348;28;20044;-71
2022/10/20 12:16:52;;;;;;;3.55;1.80;;;;;;;14.02;47.62;100328.09;10582251;28;20503;-71
2022/10/20 12:22:03;;;;;;;1.80;1.55;;;;;;;13.97;48.56;100327.44;10581849;28;20047;-71
2022/10/20 12:27:07;;;;;;;5.97;1.67;;;;;;;13.91;48.11;100327.69;10581630;28;20040;-71
2022/10/20 12:32:22;;;;;;;3.22;1.77;;;;;;;13.77;48.08;100315.03;10581647;28;20032;-71
2022/10/20 12:37:24;;;;;;;2.47;1.67;;;;;;;13.68;48.64;100310.97;10581961;28;20040;-71
2022/10/20 12:42:31;;;;;;;3.88;1.90;;;;;;;13.56;49.85;100293.84;10563365;28;20036;-74
2022/10/20 12:47:35;;;;;;;3.15;1.55;;;;;;;13.59;48.88;100290.19;10581353;28;20587;-73
2022/10/20 12:52:39;;;;;;;2.53;1.60;;;;;;;13.31;48.67;100283.38;10580714;28;20054;-73
2022/10/20 12:57:41;;;;;;;2.35;1.83;;;;;;;13.21;48.42;100281.97;10578349;28;20047;-73
2022/10/20 13:02:46;;;;;;;4.00;2.35;;;;;;;13.35;46.97;100284.13;10545116;28;20044;-73
2022/10/20 13:07:48;;;;;;;4.80;1.80;;;;;;;13.40;46.79;100284.78;10563630;28;20500;-73
2022/10/20 13:12:49;;;;;;;6.07;2.13;;;;;;;13.27;46.98;100292.31;10563318;28;20044;-73
2022/10/20 13:17:56;;;;;;;2.95;1.90;;;;;;;13.51;47.21;100282.59;10574919;28;20044;-73
2022/10/20 13:22:58;;;;;;;2.83;2.30;;;;;;;13.36;48.73;100276.13;10587688;28;20035;-73
2022/10/20 13:28:04;;;;;;;;;;;;;;;13.28;49.26;100279.97;10554948;28;20051;-73
2022/10/20 13:33:29;;;;;;;4.65;3.28;;;;;;;13.15;50.27;100274.31;10587274;28;19919;-73
2022/10/20 13:39:18;;;;;;;5.43;4.30;;;;;;;12.97;51.68;100260.03;10587909;28;20500;-72
2022/10/20 13:44:34;;;;;;;5.88;4.05;;;;;;;12.77;52.42;100241.44;10559979;28;20100;-72
2022/10/20 13:49:54;;;;;;;6.15;4.47;;;;;;;12.63;53.73;100239.34;10587010;28;20484;-74
2022/10/20 13:54:58;;;;;;;6.22;5.15;;;;;;;12.58;54.00;100250.06;10567793;28;20450;-72
2022/10/20 14:00:25;;;;;;;7.28;5.45;;;;;;;12.48;54.73;100259.19;10586273;28;20077;-72
2022/10/20 14:05:28;;;;;;;;;;;;;;;12.66;55.03;100251.53;10569180;28;20089;-73
2022/10/20 14:10:39;;;;;;;6.45;5.85;;;;;;;12.66;55.29;100241.88;10568223;28;19926;-72
2022/10/20 14:15:50;;;;;;;5.75;5.25;;;;;;;12.58;55.91;100244.78;10567522;28;20086;-72
2022/10/20 14:21:04;;;;;;;6.68;6.18;;;;;;;12.52;56.27;100236.22;10586116;28;20377;-72
2022/10/20 14:26:14;;;;;;;9.20;5.82;;;;;;;12.62;56.73;100229.72;10586000;28;20046;-72
2022/10/20 14:31:20;;;;;;;7.93;7.22;;;;;;;12.41;57.86;100227.84;10569865;28;20043;-73
2022/10/20 14:36:27;;;;;;;;;;;;;;;12.31;59.31;100240.50;10570607;28;20040;-71
2022/10/20 14:41:32;;;;;;;7.75;7.05;;;;;;;12.36;58.92;100226.25;10587170;28;19938;-72
2022/10/20 14:46:38;;;;;;;8.63;7.82;;;;;;;12.37;59.81;100219.19;10586560;28;20050;-73
2022/10/20 14:51:53;;;;;;;9.10;7.90;;;;;;;12.20;60.90;100211.03;10590701;28;20044;-73
2022/10/20 14:57:07;;;;;;;8.55;7.85;;;;;;;12.13;62.34;100218.31;10573764;28;20048;-72
2022/10/20 15:02:17;;;;;;;9.80;8.90;;;;;;;11.99;63.09;100205.59;10594075;28;20112;-73
2022/10/20 15:07:32;;;;;;;9.63;8.73;;;;;;;11.94;64.38;100201.38;10575402;28;20408;-72
2022/10/20 15:12:34;;;;;;;9.93;8.90;;;;;;;11.83;64.67;100205.25;10570006;28;20089;-73
2022/10/20 15:17:41;;;;;;;9.32;8.38;;;;;;;11.66;65.32;100206.72;10569255;28;20066;-71
2022/10/20 15:22:43;;;;;;;9.85;8.75;;;;;;;11.55;66.89;100192.16;10567789;28;20748;-72
2022/10/20 15:27:45;;;;;;;8.80;8.00;;;;;;;11.45;67.42;100197.75;10584382;28;20050;-73
2022/10/20 15:32:47;;;;;;;10.07;9.25;;;;;;;11.52;67.36;100191.38;10566985;28;20093;-71
2022/10/20 15:37:51;;;;;;;10.88;9.82;;;;;;;11.31;68.25;100178.00;10566956;28;20416;-73
2022/10/20 15:42:53;;;;;;;14.35;12.32;;;;;;;11.24;68.99;100162.44;10568471;28;20048;-72
2022/10/20 15:47:55;;;;;;;10.00;9.10;;;;;;;11.16;69.73;100167.97;10585836;28;20043;-73
2022/10/20 15:52:57;;;;;;;11.48;9.40;;;;;;;11.11;69.74;100157.59;10585741;28;20070;-73
2022/10/20 15:57:59;;;;;;;9.55;8.85;;;;;;;10.99;70.43;100155.34;10586838;28;20071;-72
2022/10/20 16:03:02;;;;;;;10.32;9.43;;;;;;;10.85;71.74;100155.78;10585513;28;20043;-72
2022/10/20 16:08:04;;;;;;;10.00;9.20;;;;;;;10.84;71.63;100143.53;10588909;28;20070;-73
2022/10/20 16:13:06;;;;;;;9.73;8.80;;;;;;;10.80;71.16;100143.66;10589988;28;20042;-73
2022/10/20 16:18:07;;;;;;;9.90;9.10;;;;;;;10.74;72.38;100144.72;10568672;28;20357;-73
2022/10/20 16:23:10;;;;;;;10.63;9.70;;;;;;;10.68;73.06;100147.56;10589938;28;20048;-73
2022/10/20 16:28:12;;;;;;;10.05;9.15;;;;;;;10.47;73.84;100153.44;10586467;28;20096;-73
2022/10/20 16:33:14;;;;;;;9.95;9.15;;;;;;;10.33;74.79;100164.38;10593089;28;20040;-72
2022/10/20 16:38:15;;;;;;;11.20;10.10;;;;;;;10.34;75.06;100148.53;10595164;28;20066;-73
2022/10/20 16:43:17;;;;;;;10.98;10.02;;;;;;;10.33;75.29;100157.34;10575410;28;20047;-72
2022/10/20 16:48:23;;;;;;;10.40;9.43;;;;;;;10.12;76.37;100152.66;10594941;28;20071;-74
2022/10/20 16:53:25;;;;;;;17.73;10.43;;;;;;;10.16;76.36;100149.03;10577356;28;20039;-72
2022/10/20 16:58:27;;;;;;;10.85;9.75;;;;;;;10.11;77.12;100146.56;10593680;28;20092;-73
2022/10/20 17:03:29;;;;;;;10.20;9.30;;;;;;;10.17;76.14;100142.03;10592160;28;20032;-74
2022/10/20 17:08:32;;;;;;;11.40;10.18;;;;;;;10.03;77.09;100127.50;10593147;28;20040;-73
2022/10/20 17:13:36;;;;;;;10.38;9.48;;;;;;;10.01;77.18;100121.47;10575990;28;20043;-73
2022/10/20 17:18:38;;;;;;;10.65;9.65;;;;;;;9.86;78.13;100114.84;10600899;28;20100;-73
2022/10/20 17:23:42;;;;;;;11.25;10.02;;;;;;;9.90;78.22;100123.50;10595038;28;20046;-73
2022/10/20 17:28:45;;;;;;;9.90;9.10;;;;;;;9.65;78.85;100130.31;10579911;28;20047;-72
2022/10/20 17:33:47;;;;;;;11.55;10.00;;;;;;;9.40;81.03;100127.47;10601724;28;20059;-72
2022/10/20 17:38:53;;;;;;;10.52;9.65;;;;;;;9.49;81.29;100124.63;10596799;28;20118;-73
2022/10/20 17:43:58;;;;;;;10.98;9.93;;;;;;;9.51;80.23;100128.91;10599694;28;20046;-72
2022/10/20 17:49:00;;;;;;;14.35;11.63;;;;;;;9.58;79.55;100135.72;10572335;28;20048;-73
2022/10/20 17:54:03;;;;;;;10.18;9.27;;;;;;;9.38;80.59;100124.88;10593689;28;20039;-72
2022/10/20 17:59:07;;;;;;;9.88;9.05;;;;;;;9.48;80.13;100102.78;10596584;28;20122;-73
2022/10/20 18:04:12;;;;;;;8.40;7.70;;;;;;;9.73;78.29;100102.97;10579224;28;20508;-73
2022/10/20 18:09:17;;;;;;;9.18;8.32;;;;;;;9.78;77.09;100079.19;10596138;28;20069;-73
2022/10/20 18:14:19;;;;;;;7.80;7.13;;;;;;;9.85;76.65;100080.78;10596617;28;20115;-73
2022/10/20 18:19:21;;;;;;;6.85;6.25;;;;;;;9.91;75.40;100070.06;10591062;28;20039;-73
2022/10/20 18:24:24;;;;;;;7.70;6.95;;;;;;;9.88;75.36;100048.31;10588016;28;20442;-74
2022/10/20 18:29:25;;;;;;;6.55;6.00;;;;;;;10.02;73.99;100052.25;10586609;28;20044;-72
2022/10/20 18:34:27;;;;;;;6.57;5.95;;;;;;;10.00;73.97;100034.81;10586619;28;20047;-73
2022/10/20 18:39:32;;;;;;;5.82;5.40;;;;;;;9.98;73.51;100034.03;10568932;28;20593;-74
2022/10/20 18:44:34;;;;;;;7.15;5.63;;;;;;;10.02;73.12;100035.66;10586720;28;20040;-73
2022/10/20 18:49:35;;;;;;;6.70;6.10;;;;;;;10.08;72.11;100017.94;10586195;28;20073;-74
2022/10/20 18:54:38;;;;;;;6.35;5.82;;;;;;;10.20;70.92;100027.22;10586594;28;20040;-74
2022/10/20 18:59:42;;;;;;;6.85;5.20;;;;;;;10.11;71.67;100017.84;10567453;28;20105;-73
2022/10/20 19:04:44;;;;;;;9.48;5.28;;;;;;;10.16;70.49;100029.97;10585256;28;20039;-73
2022/10/20 19:09:45;;;;;;;5.15;4.75;;;;;;;10.04;70.76;100020.69;10566568;28;20051;-74
2022/10/20 19:14:51;;;;;;;5.30;4.80;;;;;;;10.00;70.23;100022.53;10566898;28;20044;-73
2022/10/20 19:19:53;;;;;;;5.90;5.25;;;;;;;9.92;70.29;100007.94;10566968;28;20035;-73
2022/10/20 19:24:55;;;;;;;4.97;4.03;;;;;;;9.92;70.04;100003.56;10584525;28;20101;-72
2022/10/20 19:29:59;;;;;;;7.93;4.22;;;;;;;9.83;70.26;99999.44;10566198;28;20040;-73
2022/10/20 19:35:01;;;;;;;4.93;4.50;;;;;;;9.90;69.68;99999.25;10566230;28;20044;-73
2022/10/20 19:40:03;;;;;;;6.18;4.53;;;;;;;9.96;68.53;99996.41;10584584;28;20077;-73
2022/10/20 19:45:05;;;;;;;5.03;4.53;;;;;;;9.77;69.02;99990.88;10584418;28;20399;-74
2022/10/20 19:50:06;;;;;;;5.18;4.68;;;;;;;9.67;69.73;99982.41;10584222;28;20116;-73
2022/10/20 19:55:08;;;;;;;4.88;4.45;;;;;;;9.88;68.59;99990.56;10588845;28;20043;-73
2022/10/20 20:00:10;;;;;;;4.50;3.85;;;;;;;9.57;69.44;99996.69;10584368;28;20051;-74
2022/10/20 20:05:12;;;;;;;4.65;4.15;;;;;;;9.55;69.80;100004.59;10584366;28;20031;-74
2022/10/20 20:10:13;;;;;;;4.90;3.88;;;;;;;9.51;70.85;100000.34;10592743;28;20067;-73
2022/10/20 20:15:15;;;;;;;6.78;4.13;;;;;;;9.35;71.03;100009.56;10594056;28;20044;-72
2022/10/20 20:20:17;;;;;;;5.63;4.97;;;;;;;9.34;71.05;100002.56;10592396;28;20044;-72
2022/10/20 20:25:18;;;;;;;6.18;4.35;;;;;;;9.74;68.82;99977.81;10573111;28;20044;-72
2022/10/20 20:30:20;;;;;;;7.85;4.60;;;;;;;9.46;70.48;99991.72;10591353;28;20581;-72
2022/10/20 20:35:22;;;;;;;5.20;4.45;;;;;;;9.81;68.55;99982.00;10572927;28;20479;-72
2022/10/20 20:40:23;;;;;;;4.88;4.47;;;;;;;9.83;68.65;99986.31;10598974;28;20050;-71
2022/10/20 20:45:25;;;;;;;5.47;4.97;;;;;;;9.81;69.16;99966.25;10590279;28;20067;-71
2022/10/20 20:50:26;;;;;;;5.35;4.30;;;;;;;10.05;67.58;99969.91;10590444;28;20467;-73
2022/10/20 20:55:28;;;;;;;5.53;5.03;;;;;;;10.17;67.01;99945.88;10589832;28;20032;-71
2022/10/20 21:00:30;;;;;;;5.95;4.32;;;;;;;10.25;66.82;99953.56;10590356;28;20062;-71
2022/10/20 21:05:31;;;;;;;5.30;4.25;;;;;;;10.35;66.62;99954.97;10572087;28;20097;-71
2022/10/20 21:10:36;;;;;;;5.40;4.90;;;;;;;10.39;67.11;99951.34;10589628;28;20137;-72
2022/10/20 21:15:38;;;;;;;5.10;4.70;;;;;;;10.38;67.18;99988.19;10571209;28;20039;-72
2022/10/20 21:20:40;;;;;;;7.53;6.70;;;;;;;10.38;67.73;100001.31;10588292;28;20092;-71
2022/10/20 21:25:45;;;;;;;5.88;5.47;;;;;;;10.42;68.35;100000.31;10587983;28;20446;-71
2022/10/20 21:30:46;;;;;;;6.15;5.65;;;;;;;10.53;67.91;100008.69;10588378;28;20048;-71
2022/10/20 21:35:48;;;;;;;6.28;5.68;;;;;;;10.44;68.94;100051.91;10589374;28;20032;-71
2022/10/20 21:40:49;;;;;;;6.43;5.82;;;;;;;10.09;71.31;100056.44;10588671;28;20043;-70
2022/10/20 21:45:51;;;;;;;7.53;6.40;;;;;;;10.12;72.71;100039.72;10588014;28;20032;-70
2022/10/20 21:50:52;;;;;;;6.93;6.35;;;;;;;9.90;74.02;100047.38;10587781;28;20492;-71
2022/10/20 21:55:54;;;;;;;6.55;5.35;;;;;;;9.91;74.61;100048.22;10587965;28;20039;-71
2022/10/20 22:00:56;;;;;;;5.80;5.38;;;;;;;10.11;75.15;100041.50;10569401;28;20461;-71
2022/10/20 22:06:01;;;;;;;6.03;5.43;;;;;;;10.10;76.51;100050.28;10568442;28;20044;-73
2022/10/20 22:11:05;;;;;;;6.50;5.90;;;;;;;10.26;78.06;100050.69;10588640;28;20039;-70
2022/10/20 22:16:10;;;;;;;6.22;5.72;;;;;;;9.90;81.39;100052.59;10587293;28;20043;-71
2022/10/20 22:21:15;;;;;;;5.13;4.72;;;;;;;9.75;83.66;100047.81;10588011;28;20039;-71
2022/10/20 22:26:16;;;;;;;6.88;6.38;;;;;;;9.77;84.85;100033.72;10587451;28;20039;-71
2022/10/20 22:31:18;;;;;;;6.70;6.10;;;;;;;9.94;84.65;100046.38;10569070;28;20051;-71
2022/10/20 22:36:20;;;;;;;7.05;6.38;;;;;;;9.63;85.78;100028.00;10572182;28;20048;-72
2022/10/20 22:41:22;;;;;;;7.78;7.13;;;;;;;9.62;86.36;100035.94;10587275;28;20051;-73
2022/10/20 22:46:24;;;;;;;8.05;7.35;;;;;;;9.99;81.62;100043.59;10589122;28;20061;-72
2022/10/20 22:51:26;;;;;;;11.43;7.22;;;;;;;9.76;83.31;100028.53;10587957;28;20557;-73
2022/10/20 22:56:27;;;;;;;7.57;6.82;;;;;;;9.65;84.43;100023.59;10588316;28;20084;-72
2022/10/20 23:01:29;;;;;;;8.68;7.82;;;;;;;9.80;84.15;100004.75;10586850;28;20048;-72
2022/10/20 23:06:31;;;;;;;8.27;7.68;;;;;;;10.27;79.26;99994.66;10569891;28;20062;-74
2022/10/20 23:11:33;;;;;;;9.25;6.90;;;;;;;10.34;77.57;99985.66;10588433;28;20112;-74
2022/10/20 23:16:34;;;;;;;7.60;6.90;;;;;;;10.32;77.30;99973.47;10553510;28;20050;-74
2022/10/20 23:21:36;;;;;;;7.47;6.93;;;;;;;10.44;76.37;99970.44;10589293;28;20504;-74